Aérodrome :
LOGIN :

S'inscrire | Disclaimer

   EN    FR    IT 

 










Légende :    VFR   VFR Marginal   IFR   IFR Intensif   IFR Très Intensif
Visi : 
Plafond : 
>= 8 km
>= 3000ft
5 à 8 km
1000 à 3000 ft
1500m à 5 km
500 à 1000 ft
800 à 1500m
200 à 500 ft
< 800m
< 200 ft
Symboles :   Orages  Brouillard  Fortes neiges  Fortes précipitations  Vent > 20 kt
SIGMETs :   Divers  Orages  Givrage  Turbulence  Onde Orograph.  Cendres Volcan.






- Altitude de l'aérodrome : 82 ft
- Code IATA : QIE


LFMI - Istres

DERNIER METAR :
  • 271800Z AUTO 25014KT CAVOK 13/09 Q1009 NOSIG

METARs EXPIRÉS :
  • 271730Z AUTO 25018KT CAVOK 13/09 Q1009 NOSIG
  • 271700Z AUTO 25018KT CAVOK 14/09 Q1009 TEMPO 25024G34KT
  • 271630Z AUTO 25019KT 9999 FEW047 BKN058 BKN250 14/09 Q1008 TEMPO 25024G34KT
  • 271600Z AUTO 25020KT CAVOK 14/09 Q1009 NOSIG
  • 271530Z AUTO 24015G25KT 9999 SCT045 OVC056 15/09 Q1009 BECMG 28013KT

TAF AMD TAF LFMI
Valide du 27 à 16h jusqu'au 28 à 15h UTC


271605Z 2716/2815 24015KT CAVOK
TEMPO 2716/2718 25024G34KT
BECMG 2720/2722 32015KT
TEMPO 2801/2805 33018G28KT
BECMG 2813/2815 32008KT



MET'MAP, la Météo Aéronautique d'un coup d'oeil ! - Copyright ORBIFLY Décembre 2007 - Disclaimer

ORBIFLY MET'MAP TEAM :

Programmation & Développement : Alexandra Zaïnal
Sur une idée originale de : Baudouin d'Aumeries
Assistance à la programmation : Marc-Olivier Méhu
Soutien technique & logistique : Manuel Goepfert

Contact : metmap@orbifly.com




SOURCES & CREDITS :

   NOAA